Nearby METAR Reports

 

KSJC - San Jose, California, USA
Distance from station: NE 9mi, 14km
Updated: Wed, 25-Apr-2018 6:53am CDT
Overcast
Overcast
 Wind from calm
Wind: Calm
Temperature: 55°F , 13°C
Dew Point: 48°F , 9°C
Humidity: 77%
Barometer: 30.03 inHg , 1016.9 hPa
Clouds: Overcast
Visibility: 10 miles , 16 km
Cloud details: Overcast 1500 ft
2018/04/25 11:53 KSJC 251153Z AUTO 00000KT 10SM OVC015 13/09 A3003 RMK AO2 SLP170 T01280094 10133 20122 54000
KNUQ - Moffett Nas/Mtn, California, USA
Distance from station: N 9mi, 14km
Updated: Wed, 25-Apr-2018 6:56am CDT
Overcast
Overcast
 Wind from N
Wind: N 5 mph , 7 km/h
Temperature: 55°F , 13°C
Dew Point: 50°F , 10°C
Humidity: 82%
Barometer: 30.04 inHg , 1017.3 hPa
Clouds: Overcast
Visibility: 10 miles , 16 km
Cloud details: Overcast 1300 ft
2018/04/25 11:56 KNUQ 251156Z 01004KT 10SM OVC013 13/10 A3004 RMK AO2 SLP175 T01280100 10128 20122 56001
 
KPAO - Palo Alto, California, USA
Distance from station: NNW 14mi, 23km
Updated: Tue, 24-Apr-2018 10:47pm CDT
NOT Current
Partly cloudy
Partly cloudy
 Wind from NW
Wind: NW 9 mph , 15 km/h
Barometer: 30.01 inHg , 1016.3 hPa
Clouds: Partly cloudy
Visibility: 10 miles , 16 km
Cloud details: Partly cloudy 16000 ft
2018/04/25 03:47 KPAO 250347Z 32008KT 10SM SCT160 A3001 RMK LAST
KRHV - San Jose/Reid, California, USA
Distance from station: ENE 12mi, 19km
Updated: Tue, 24-Apr-2018 11:47pm CDT
NOT Current
Mostly cloudy
Mostly cloudy
 Wind from NW
Wind: NW 6 mph , 9 km/h
Temperature: 57°F , 14°C
Dew Point: 50°F , 10°C
Humidity: 77%
Barometer: 30.01 inHg , 1016.3 hPa
Clouds: Mostly cloudy
Visibility: 10 miles , 16 km
Cloud details: Mostly cloudy 11000 ft
2018/04/25 04:47 KRHV 250447Z 31005KT 10SM BKN110 14/10 A3001 RMK LAST
 
KOAK - Oakland, California, USA
Distance from station: NNW 31mi, 50km
Updated: Wed, 25-Apr-2018 6:53am CDT
Overcast
Overcast
 Wind from NW
Wind: NW 6 mph , 9 km/h
Temperature: 52°F , 11°C
Dew Point: 48°F , 9°C
Humidity: 88%
Barometer: 30.04 inHg , 1017.3 hPa
Clouds: Overcast
Visibility: 10 miles , 16 km
Cloud details: Overcast 1300 ft
2018/04/25 11:53 KOAK 251153Z 31005KT 10SM OVC013 11/09 A3004 RMK AO2 SLP173 T01110089 10111 20100 53000 $
KSQL - San Carlos Airpo, California, USA
Distance from station: NW 21mi, 34km
Updated: Wed, 25-Apr-2018 7:00am CDT
Overcast
Overcast
 Wind from SE
Wind: SE 3 mph , 6 km/h
Temperature: 54°F , 12°C
Dew Point: 48°F , 9°C
Humidity: 82%
Barometer: 30.04 inHg , 1017.3 hPa
Clouds: Overcast
Visibility: 10 miles , 16 km
Cloud details: Overcast 1300 ft
2018/04/25 12:00 KSQL 251200Z AUTO 13003KT 10SM OVC013 12/09 A3004 RMK AO2
 
KSFO - San Francisco, California, USA
Distance from station: NW 30mi, 49km
Updated: Wed, 25-Apr-2018 6:56am CDT
Mostly cloudy
Mostly cloudy
 Wind from SW
Wind: SW 5 mph , 7 km/h
Temperature: 54°F , 12°C
Dew Point: 46°F , 8°C
Humidity: 77%
Barometer: 30.04 inHg , 1017.3 hPa
Clouds: Mostly cloudy
Visibility: 10 miles , 16 km
Cloud details: Few Clouds 1000 ft
Partly cloudy 1200 ft
Mostly cloudy 1500 ft
2018/04/25 11:56 KSFO 251156Z 22004KT 10SM FEW010 SCT012 BKN015 12/08 A3004 RMK AO2 SLP171 T01170078 10122 20106 55001
KE16 - San Martin, California, USA
Distance from station: ESE 27mi, 43km
Updated: Wed, 25-Apr-2018 6:55am CDT
Overcast
Overcast
 Wind from SSE
Wind: SSE 3 mph , 6 km/h
Temperature: 48°F , 9°C
Dew Point: 46°F , 8°C
Humidity: 94%
Barometer: 30.06 inHg , 1017.9 hPa
Clouds: Overcast
Visibility: 8 miles , 13 km
Cloud details: Mostly cloudy 300 ft
Overcast 1400 ft
2018/04/25 11:55 KE16 251155Z AUTO 15003KT 8SM BKN003 OVC014 09/08 A3006 RMK AO2
 
KWVI - Watsonville, California, USA
Distance from station: SSE 27mi, 44km
Updated: Wed, 25-Apr-2018 6:53am CDT
Overcast
Overcast
 Wind from calm
Wind: Calm
Temperature: 52°F , 11°C
Dew Point: 48°F , 9°C
Humidity: 88%
Barometer: 30.05 inHg , 1017.6 hPa
Clouds: Overcast
Visibility: 7 miles , 11 km
Cloud details: Overcast 800 ft
2018/04/25 11:53 KWVI 251153Z AUTO 00000KT 7SM OVC008 11/09 A3005 RMK AO2 SLP175 T01060094 10111 20106 55000
KHAF - Half Moon Bay, California, USA
Distance from station: WNW 31mi, 50km
Updated: Wed, 25-Apr-2018 7:00am CDT
Overcast
Overcast
 Wind from ENE
Wind: ENE 6 mph , 9 km/h
Temperature: 50°F , 10°C
Wind Chill: 48°F , 9°C
Dew Point: 46°F , 8°C
Humidity: 88%
Barometer: 30.05 inHg , 1017.6 hPa
Clouds: Overcast
Visibility: 8 miles , 13 km
Cloud details: Overcast 1200 ft
2018/04/25 12:00 KHAF 251200Z AUTO 06005KT 8SM OVC012 10/08 A3005 RMK AO2
 
KHWD - Hayward, California, USA
Distance from station: N 28mi, 44km
Updated: Wed, 25-Apr-2018 6:54am CDT
Overcast
Overcast
 Wind from N
Wind: N 3 mph , 6 km/h
Temperature: 54°F , 12°C
Dew Point: 45°F , 7°C
Humidity: 72%
Barometer: 30.03 inHg , 1016.9 hPa
Clouds: Overcast
Visibility: 10 miles , 16 km
Cloud details: Overcast 1300 ft
2018/04/25 11:54 KHWD 251154Z 35003KT 10SM OVC013 12/07 A3003 RMK AO2 SLP180 T01220072 10122 20111 55001
KLVK - Livermore, California, USA
Distance from station: NNE 31mi, 51km
Updated: Wed, 25-Apr-2018 6:53am CDT
Mist, Mostly cloudy
Mist, Mostly cloudy
 Wind from NNW
Wind: NNW 5 mph , 7 km/h
Temperature: 48°F , 9°C
Wind Chill: 46°F , 8°C
Dew Point: 48°F , 9°C
Humidity: 100%
Barometer: 30.02 inHg , 1016.6 hPa
Summary: Mist
Clouds: Mostly cloudy
Visibility: 6 miles , 10 km
Cloud details: Mostly cloudy 900 ft
2018/04/25 11:53 KLVK 251153Z AUTO 33004KT 6SM BR BKN009 09/09 A3002 RMK AO2 SLP164 T00940094 10128 20094 55000